RYR3DR EGSS-LDDU
Flight info
| Callsign | RYR3DR |
|---|---|
| Flight time | 2h 14m |
| Altitude | 35000 |
| Route | CLN M84 KONAN DCT KOK UL607 REMBA DCT RITAX DCT PITES DCT KRH DCT UTABA DCT BEMKI DCT ELMEM DCT DIRAB DCT NIVAS DCT PEVAL DCT NAKIT DCT SPL L607 SIPAL |
| Aircraft | B738/M-SDE2E3FGHIRWXY/LB1 |
Departure
| Time | 2026-05-07 11:45 |
|---|---|
| Airport | London Stansted Airport (EGSS) |
Arrival
| Time | 2026-05-07 13:59 |
|---|---|
| Airport | Dubrovnik Ruđer Bošković Airport (LDDU) |
| Time | Latitude | Longitude | Altitude | Speed | Heading |
|---|---|---|---|---|---|
| 2026-05-07 11:19 | 51.89164 | 0.25741 | 358 ft | 0 kts | 223° |
| 2026-05-07 11:34 | 51.89169 | 0.25749 | 378 ft | 4 kts | 223° |
| 2026-05-07 11:34 | 51.89187 | 0.25775 | 356 ft | 2 kts | 223° |
| 2026-05-07 11:34 | 51.89199 | 0.25801 | 359 ft | 4 kts | 275° |
| 2026-05-07 11:35 | 51.89189 | 0.25832 | 358 ft | 4 kts | 313° |
| 2026-05-07 11:35 | 51.89181 | 0.25847 | 357 ft | 0 kts | 313° |
| 2026-05-07 11:37 | 51.89182 | 0.25845 | 358 ft | 1 kts | 313° |
| 2026-05-07 11:37 | 51.89201 | 0.25812 | 360 ft | 7 kts | 313° |
| 2026-05-07 11:38 | 51.89250 | 0.25725 | 359 ft | 14 kts | 313° |
| 2026-05-07 11:38 | 51.89330 | 0.25589 | 351 ft | 18 kts | 319° |
| 2026-05-07 11:38 | 51.89416 | 0.25476 | 355 ft | 12 kts | 295° |
| 2026-05-07 11:38 | 51.89384 | 0.25361 | 359 ft | 13 kts | 221° |
| 2026-05-07 11:39 | 51.89303 | 0.25242 | 355 ft | 18 kts | 223° |
| 2026-05-07 11:39 | 51.89218 | 0.25055 | 356 ft | 21 kts | 237° |
| 2026-05-07 11:39 | 51.89103 | 0.24871 | 358 ft | 25 kts | 223° |
| 2026-05-07 11:39 | 51.88964 | 0.24661 | 353 ft | 29 kts | 223° |
| 2026-05-07 11:40 | 51.88809 | 0.24428 | 349 ft | 31 kts | 223° |
| 2026-05-07 11:40 | 51.88661 | 0.24206 | 335 ft | 28 kts | 223° |
| 2026-05-07 11:40 | 51.88522 | 0.23997 | 335 ft | 27 kts | 223° |
| 2026-05-07 11:40 | 51.88390 | 0.23800 | 345 ft | 25 kts | 222° |
| 2026-05-07 11:41 | 51.88266 | 0.23614 | 343 ft | 24 kts | 223° |
| 2026-05-07 11:41 | 51.88140 | 0.23427 | 337 ft | 25 kts | 222° |
| 2026-05-07 11:41 | 51.88003 | 0.23220 | 335 ft | 28 kts | 223° |
| 2026-05-07 11:41 | 51.87862 | 0.23007 | 337 ft | 28 kts | 223° |
| 2026-05-07 11:42 | 51.87724 | 0.22803 | 335 ft | 27 kts | 222° |
| 2026-05-07 11:42 | 51.87590 | 0.22601 | 330 ft | 27 kts | 223° |
| 2026-05-07 11:42 | 51.87515 | 0.22450 | 328 ft | 10 kts | 281° |
| 2026-05-07 11:42 | 51.87560 | 0.22356 | 325 ft | 12 kts | 313° |
| 2026-05-07 11:43 | 51.87630 | 0.22270 | 324 ft | 13 kts | 339° |
| 2026-05-07 11:43 | 51.87707 | 0.22291 | 325 ft | 8 kts | 40° |
| 2026-05-07 11:43 | 51.87716 | 0.22305 | 326 ft | 0 kts | 42° |
| 2026-05-07 11:44 | 51.87774 | 0.22390 | 330 ft | 38 kts | 42° |
| 2026-05-07 11:44 | 51.88148 | 0.22952 | 332 ft | 107 kts | 43° |
| 2026-05-07 11:44 | 51.88843 | 0.23994 | 361 ft | 161 kts | 46° |
| 2026-05-07 11:44 | 51.89705 | 0.25287 | 902 ft | 173 kts | 45° |
| 2026-05-07 11:45 | 51.90591 | 0.26627 | 1704 ft | 177 kts | 46° |
| 2026-05-07 11:45 | 51.91394 | 0.28304 | 2065 ft | 202 kts | 66° |
| 2026-05-07 11:45 | 51.91779 | 0.30573 | 2365 ft | 220 kts | 90° |
| 2026-05-07 11:45 | 51.91421 | 0.33026 | 2771 ft | 229 kts | 117° |
| 2026-05-07 11:46 | 51.90648 | 0.35419 | 3110 ft | 251 kts | 118° |
| 2026-05-07 11:46 | 51.90114 | 0.37101 | 3626 ft | 253 kts | 118° |
| 2026-05-07 11:46 | 51.89329 | 0.39673 | 4470 ft | 257 kts | 117° |
| 2026-05-07 11:46 | 51.88537 | 0.42273 | 5317 ft | 259 kts | 117° |
| 2026-05-07 11:47 | 51.87751 | 0.44904 | 6144 ft | 262 kts | 117° |
| 2026-05-07 11:47 | 51.86961 | 0.47576 | 6924 ft | 265 kts | 117° |
| 2026-05-07 11:47 | 51.86159 | 0.50304 | 7595 ft | 272 kts | 116° |
| 2026-05-07 11:47 | 51.85340 | 0.53091 | 8311 ft | 277 kts | 116° |
| 2026-05-07 11:48 | 51.84505 | 0.55928 | 9007 ft | 282 kts | 116° |
| 2026-05-07 11:48 | 51.83659 | 0.58825 | 9743 ft | 287 kts | 113° |
| 2026-05-07 11:48 | 51.83084 | 0.61939 | 10372 ft | 294 kts | 99° |
| 2026-05-07 11:48 | 51.82943 | 0.65353 | 10566 ft | 316 kts | 87° |
| 2026-05-07 11:49 | 51.83086 | 0.69025 | 10756 ft | 338 kts | 85° |
| 2026-05-07 11:49 | 51.83268 | 0.72904 | 11123 ft | 351 kts | 85° |
| 2026-05-07 11:49 | 51.83444 | 0.76874 | 11766 ft | 356 kts | 86° |
| 2026-05-07 11:49 | 51.83605 | 0.80890 | 12476 ft | 360 kts | 86° |
| 2026-05-07 11:50 | 51.83755 | 0.84952 | 13153 ft | 363 kts | 87° |
| 2026-05-07 11:50 | 51.83901 | 0.89047 | 13847 ft | 367 kts | 87° |
| 2026-05-07 11:50 | 51.83974 | 0.93197 | 14405 ft | 372 kts | 96° |
| 2026-05-07 11:50 | 51.83191 | 0.97153 | 14982 ft | 373 kts | 123° |
| 2026-05-07 11:51 | 51.81446 | 1.00246 | 15501 ft | 377 kts | 144° |
| 2026-05-07 11:51 | 51.79241 | 1.02539 | 16150 ft | 377 kts | 149° |
| 2026-05-07 11:51 | 51.76990 | 1.04719 | 16789 ft | 380 kts | 150° |
| 2026-05-07 11:51 | 51.74708 | 1.06910 | 17356 ft | 384 kts | 150° |
| 2026-05-07 11:52 | 51.72406 | 1.09127 | 17939 ft | 387 kts | 150° |
| 2026-05-07 11:52 | 51.70091 | 1.11373 | 18502 ft | 390 kts | 150° |
| 2026-05-07 11:52 | 51.67761 | 1.13647 | 19018 ft | 393 kts | 150° |
| 2026-05-07 11:52 | 51.65422 | 1.15941 | 19532 ft | 395 kts | 150° |
| 2026-05-07 11:53 | 51.63069 | 1.18252 | 20034 ft | 398 kts | 149° |
| 2026-05-07 11:53 | 51.60702 | 1.20579 | 20530 ft | 400 kts | 149° |
| 2026-05-07 11:53 | 51.58316 | 1.22921 | 21022 ft | 403 kts | 150° |
| 2026-05-07 11:53 | 51.55916 | 1.25275 | 21498 ft | 406 kts | 150° |
| 2026-05-07 11:54 | 51.53497 | 1.27644 | 21950 ft | 409 kts | 150° |
| 2026-05-07 11:54 | 51.51057 | 1.30031 | 22431 ft | 411 kts | 150° |
| 2026-05-07 11:54 | 51.48607 | 1.32424 | 22895 ft | 414 kts | 150° |
| 2026-05-07 11:54 | 51.46134 | 1.34834 | 23340 ft | 417 kts | 150° |
| 2026-05-07 11:55 | 51.43785 | 1.37487 | 23739 ft | 421 kts | 141° |
| 2026-05-07 11:55 | 51.41696 | 1.40797 | 24103 ft | 425 kts | 131° |
| 2026-05-07 11:55 | 51.39873 | 1.44547 | 24472 ft | 428 kts | 128° |
| 2026-05-07 11:55 | 51.38076 | 1.48366 | 24785 ft | 431 kts | 128° |
| 2026-05-07 11:56 | 51.36269 | 1.52210 | 25135 ft | 433 kts | 128° |
| 2026-05-07 11:56 | 51.34447 | 1.56057 | 25509 ft | 435 kts | 128° |
| 2026-05-07 11:56 | 51.32607 | 1.59907 | 25864 ft | 436 kts | 129° |
| 2026-05-07 11:56 | 51.30747 | 1.63769 | 26170 ft | 439 kts | 129° |
| 2026-05-07 11:57 | 51.28873 | 1.67645 | 26454 ft | 442 kts | 129° |
| 2026-05-07 11:57 | 51.27017 | 1.71471 | 26756 ft | 445 kts | 129° |
| 2026-05-07 11:57 | 51.25115 | 1.75384 | 27065 ft | 447 kts | 129° |
| 2026-05-07 11:57 | 51.23206 | 1.79310 | 27375 ft | 449 kts | 129° |
| 2026-05-07 11:58 | 51.21285 | 1.83254 | 27680 ft | 451 kts | 129° |
| 2026-05-07 11:58 | 51.19358 | 1.87208 | 27976 ft | 453 kts | 129° |
| 2026-05-07 11:58 | 51.17419 | 1.91178 | 28253 ft | 455 kts | 129° |
| 2026-05-07 11:58 | 51.15495 | 1.95194 | 28513 ft | 458 kts | 126° |
| 2026-05-07 11:59 | 51.13947 | 1.99645 | 28789 ft | 462 kts | 114° |
| 2026-05-07 11:59 | 51.12919 | 2.04508 | 29088 ft | 465 kts | 104° |
| 2026-05-07 11:59 | 51.12430 | 2.09605 | 29360 ft | 468 kts | 96° |
| 2026-05-07 11:59 | 51.12183 | 2.14786 | 29653 ft | 469 kts | 95° |
| 2026-05-07 12:00 | 51.11956 | 2.19961 | 29996 ft | 469 kts | 95° |
| 2026-05-07 12:00 | 51.11719 | 2.25135 | 30340 ft | 468 kts | 95° |
| 2026-05-07 12:00 | 51.11462 | 2.30290 | 30656 ft | 467 kts | 96° |
| 2026-05-07 12:00 | 51.11188 | 2.35432 | 30940 ft | 466 kts | 96° |
| 2026-05-07 12:01 | 51.10903 | 2.40580 | 31207 ft | 467 kts | 96° |
| 2026-05-07 12:01 | 51.10614 | 2.45707 | 31495 ft | 466 kts | 96° |
| 2026-05-07 12:01 | 51.10323 | 2.50836 | 31798 ft | 465 kts | 96° |
| 2026-05-07 12:01 | 51.10032 | 2.55958 | 32082 ft | 464 kts | 96° |
| 2026-05-07 12:02 | 51.09739 | 2.61072 | 32351 ft | 464 kts | 96° |
| 2026-05-07 12:02 | 51.09367 | 2.66164 | 32613 ft | 463 kts | 101° |
| 2026-05-07 12:02 | 51.08598 | 2.71124 | 32886 ft | 461 kts | 107° |
| 2026-05-07 12:02 | 51.07691 | 2.76012 | 33175 ft | 461 kts | 108° |
| 2026-05-07 12:03 | 51.06757 | 2.80884 | 33431 ft | 460 kts | 108° |
| 2026-05-07 12:03 | 51.05825 | 2.85754 | 33679 ft | 460 kts | 108° |
| 2026-05-07 12:03 | 51.04906 | 2.90625 | 33909 ft | 461 kts | 108° |
| 2026-05-07 12:03 | 51.04003 | 2.95484 | 34145 ft | 460 kts | 108° |
| 2026-05-07 12:04 | 51.03102 | 3.00368 | 34362 ft | 460 kts | 108° |
| 2026-05-07 12:04 | 51.02209 | 3.05234 | 34543 ft | 460 kts | 107° |
| 2026-05-07 12:04 | 51.01312 | 3.10117 | 34717 ft | 460 kts | 108° |
| 2026-05-07 12:04 | 51.00415 | 3.14987 | 34912 ft | 460 kts | 108° |
| 2026-05-07 12:05 | 50.99526 | 3.19797 | 35068 ft | 460 kts | 108° |
| 2026-05-07 12:05 | 50.97709 | 3.29586 | 35068 ft | 462 kts | 108° |
| 2026-05-07 12:06 | 50.95892 | 3.39321 | 35060 ft | 459 kts | 108° |
| 2026-05-07 12:06 | 50.94077 | 3.48991 | 35063 ft | 456 kts | 108° |
| 2026-05-07 12:07 | 50.92265 | 3.58604 | 35066 ft | 455 kts | 108° |
| 2026-05-07 12:07 | 50.90440 | 3.68198 | 35073 ft | 455 kts | 108° |
| 2026-05-07 12:08 | 50.88585 | 3.77784 | 35069 ft | 455 kts | 108° |
| 2026-05-07 12:08 | 50.86717 | 3.87381 | 35069 ft | 457 kts | 108° |
| 2026-05-07 12:09 | 50.84838 | 3.97006 | 35082 ft | 459 kts | 108° |
| 2026-05-07 12:09 | 50.82943 | 4.06668 | 35073 ft | 460 kts | 109° |
| 2026-05-07 12:10 | 50.81037 | 4.16346 | 35074 ft | 462 kts | 109° |
| 2026-05-07 12:10 | 50.79114 | 4.26059 | 35076 ft | 464 kts | 109° |
| 2026-05-07 12:11 | 50.77176 | 4.35797 | 35065 ft | 465 kts | 109° |
| 2026-05-07 12:11 | 50.75232 | 4.45519 | 35070 ft | 464 kts | 109° |
| 2026-05-07 12:12 | 50.73284 | 4.55221 | 35070 ft | 463 kts | 109° |
| 2026-05-07 12:12 | 50.71350 | 4.64899 | 35072 ft | 462 kts | 108° |
| 2026-05-07 12:13 | 50.69495 | 4.74526 | 35065 ft | 461 kts | 108° |
| 2026-05-07 12:13 | 50.67629 | 4.84117 | 35062 ft | 460 kts | 109° |
| 2026-05-07 12:14 | 50.64831 | 4.93064 | 35083 ft | 455 kts | 127° |
| 2026-05-07 12:14 | 50.60581 | 5.00374 | 35076 ft | 453 kts | 137° |
| 2026-05-07 12:15 | 50.56037 | 5.07253 | 35059 ft | 453 kts | 138° |
| 2026-05-07 12:15 | 50.51510 | 5.14152 | 35060 ft | 453 kts | 137° |
| 2026-05-07 12:16 | 50.47010 | 5.21066 | 35064 ft | 453 kts | 137° |
| 2026-05-07 12:16 | 50.42503 | 5.27996 | 35079 ft | 454 kts | 137° |
| 2026-05-07 12:17 | 50.37959 | 5.34963 | 35050 ft | 458 kts | 137° |
| 2026-05-07 12:17 | 50.33402 | 5.41937 | 35063 ft | 458 kts | 137° |
| 2026-05-07 12:18 | 50.28839 | 5.48889 | 35056 ft | 458 kts | 137° |
| 2026-05-07 12:18 | 50.24269 | 5.55826 | 35062 ft | 458 kts | 137° |
| 2026-05-07 12:19 | 50.19697 | 5.62759 | 35057 ft | 458 kts | 137° |
| 2026-05-07 12:19 | 50.15123 | 5.69671 | 35059 ft | 458 kts | 137° |
| 2026-05-07 12:20 | 50.10540 | 5.76578 | 35057 ft | 458 kts | 137° |
| 2026-05-07 12:20 | 50.06147 | 5.83758 | 35051 ft | 459 kts | 128° |
| 2026-05-07 12:21 | 50.02331 | 5.91714 | 35042 ft | 459 kts | 127° |
| 2026-05-07 12:21 | 49.98540 | 5.99702 | 35051 ft | 459 kts | 127° |
| 2026-05-07 12:22 | 49.94702 | 6.07640 | 35047 ft | 460 kts | 128° |
| 2026-05-07 12:22 | 49.90832 | 6.15551 | 35044 ft | 460 kts | 128° |
| 2026-05-07 12:23 | 49.86951 | 6.23454 | 35044 ft | 461 kts | 128° |
| 2026-05-07 12:23 | 49.83094 | 6.31288 | 35042 ft | 461 kts | 128° |
| 2026-05-07 12:24 | 49.79202 | 6.39176 | 35036 ft | 461 kts | 128° |
| 2026-05-07 12:24 | 49.75304 | 6.47059 | 35036 ft | 461 kts | 128° |
| 2026-05-07 12:25 | 49.71628 | 6.55152 | 35030 ft | 462 kts | 119° |
| 2026-05-07 12:25 | 49.68632 | 6.63928 | 35028 ft | 462 kts | 117° |
| 2026-05-07 12:26 | 49.65687 | 6.72737 | 35031 ft | 462 kts | 118° |
| 2026-05-07 12:26 | 49.62692 | 6.81519 | 35024 ft | 462 kts | 118° |
| 2026-05-07 12:27 | 49.59664 | 6.90271 | 35032 ft | 462 kts | 118° |
| 2026-05-07 12:27 | 49.56623 | 6.98999 | 35034 ft | 462 kts | 119° |
| 2026-05-07 12:28 | 49.53573 | 7.07726 | 35047 ft | 463 kts | 119° |
| 2026-05-07 12:28 | 49.50519 | 7.16440 | 35034 ft | 463 kts | 119° |
| 2026-05-07 12:29 | 49.47464 | 7.25125 | 35039 ft | 463 kts | 119° |
| 2026-05-07 12:29 | 49.44397 | 7.33820 | 35040 ft | 463 kts | 119° |
| 2026-05-07 12:30 | 49.41321 | 7.42509 | 35042 ft | 463 kts | 119° |
| 2026-05-07 12:30 | 49.38234 | 7.51199 | 35033 ft | 464 kts | 119° |
| 2026-05-07 12:31 | 49.35140 | 7.59881 | 35046 ft | 464 kts | 119° |
| 2026-05-07 12:31 | 49.32045 | 7.68536 | 35037 ft | 464 kts | 119° |
| 2026-05-07 12:32 | 49.28932 | 7.77212 | 35042 ft | 464 kts | 120° |
| 2026-05-07 12:32 | 49.25817 | 7.85867 | 35038 ft | 464 kts | 120° |
| 2026-05-07 12:33 | 49.21133 | 7.98823 | 35034 ft | 463 kts | 120° |
| 2026-05-07 12:33 | 49.18017 | 8.07408 | 35033 ft | 463 kts | 120° |
| 2026-05-07 12:34 | 49.14905 | 8.15953 | 35031 ft | 463 kts | 120° |
| 2026-05-07 12:34 | 49.12278 | 8.23147 | 35029 ft | 463 kts | 120° |
| 2026-05-07 12:35 | 49.09132 | 8.31733 | 35032 ft | 463 kts | 120° |
| 2026-05-07 12:35 | 49.05986 | 8.40294 | 35030 ft | 464 kts | 120° |
| 2026-05-07 12:36 | 49.02828 | 8.48864 | 35025 ft | 464 kts | 120° |
| 2026-05-07 12:36 | 48.99479 | 8.57256 | 35018 ft | 463 kts | 129° |
| 2026-05-07 12:37 | 48.94883 | 8.64003 | 35030 ft | 460 kts | 143° |
| 2026-05-07 12:37 | 48.89828 | 8.69977 | 35023 ft | 461 kts | 144° |
| 2026-05-07 12:38 | 48.84769 | 8.75959 | 35025 ft | 461 kts | 143° |
| 2026-05-07 12:38 | 48.79722 | 8.81993 | 35021 ft | 462 kts | 143° |
| 2026-05-07 12:39 | 48.74682 | 8.88037 | 35025 ft | 462 kts | 143° |
| 2026-05-07 12:39 | 48.69632 | 8.94081 | 35016 ft | 462 kts | 143° |
| 2026-05-07 12:40 | 48.64622 | 9.00059 | 35021 ft | 462 kts | 143° |
| 2026-05-07 12:40 | 48.59575 | 9.06063 | 35019 ft | 463 kts | 143° |
| 2026-05-07 12:41 | 48.54518 | 9.12063 | 35024 ft | 463 kts | 144° |
| 2026-05-07 12:41 | 48.49453 | 9.18056 | 35018 ft | 463 kts | 144° |
| 2026-05-07 12:42 | 48.44386 | 9.24038 | 35010 ft | 463 kts | 144° |
| 2026-05-07 12:42 | 48.39317 | 9.30006 | 35011 ft | 462 kts | 144° |
| 2026-05-07 12:43 | 48.34254 | 9.35952 | 35011 ft | 462 kts | 144° |
| 2026-05-07 12:43 | 48.29187 | 9.41889 | 35021 ft | 461 kts | 144° |
| 2026-05-07 12:44 | 48.24130 | 9.47821 | 35008 ft | 461 kts | 143° |
| 2026-05-07 12:44 | 48.19161 | 9.53913 | 35018 ft | 461 kts | 142° |
| 2026-05-07 12:45 | 48.14222 | 9.60039 | 35019 ft | 461 kts | 142° |
| 2026-05-07 12:45 | 48.09269 | 9.66140 | 35021 ft | 461 kts | 143° |
| 2026-05-07 12:46 | 48.04305 | 9.72215 | 35020 ft | 461 kts | 143° |
| 2026-05-07 12:46 | 47.99349 | 9.78257 | 35012 ft | 461 kts | 143° |
| 2026-05-07 12:47 | 47.94375 | 9.84306 | 35025 ft | 461 kts | 143° |
| 2026-05-07 12:47 | 47.89395 | 9.90347 | 35019 ft | 462 kts | 143° |
| 2026-05-07 12:48 | 47.84405 | 9.96387 | 35024 ft | 462 kts | 143° |
| 2026-05-07 12:48 | 47.79409 | 10.02418 | 35022 ft | 463 kts | 143° |
| 2026-05-07 12:49 | 47.74415 | 10.08432 | 35023 ft | 463 kts | 143° |
| 2026-05-07 12:49 | 47.69412 | 10.14443 | 35021 ft | 463 kts | 143° |
| 2026-05-07 12:50 | 47.64401 | 10.20448 | 35023 ft | 463 kts | 144° |
| 2026-05-07 12:50 | 47.59385 | 10.26442 | 35020 ft | 464 kts | 144° |
| 2026-05-07 12:51 | 47.54312 | 10.32327 | 35001 ft | 462 kts | 148° |
| 2026-05-07 12:51 | 47.48964 | 10.37532 | 35016 ft | 460 kts | 150° |
| 2026-05-07 12:52 | 47.43609 | 10.42594 | 35007 ft | 460 kts | 150° |
| 2026-05-07 12:52 | 47.38249 | 10.47761 | 35005 ft | 459 kts | 150° |
| 2026-05-07 12:53 | 47.32909 | 10.52933 | 34998 ft | 458 kts | 150° |
| 2026-05-07 12:53 | 47.27595 | 10.58081 | 34996 ft | 456 kts | 149° |
| 2026-05-07 12:54 | 47.22417 | 10.63455 | 34953 ft | 456 kts | 147° |
| 2026-05-07 12:54 | 47.17280 | 10.68924 | 34973 ft | 456 kts | 148° |
| 2026-05-07 12:55 | 47.12123 | 10.74354 | 34963 ft | 456 kts | 148° |
| 2026-05-07 12:55 | 47.06951 | 10.79752 | 34951 ft | 457 kts | 149° |
| 2026-05-07 12:56 | 47.01761 | 10.85142 | 34969 ft | 458 kts | 148° |
| 2026-05-07 12:56 | 46.96546 | 10.90554 | 34973 ft | 462 kts | 149° |
| 2026-05-07 12:57 | 46.91284 | 10.96000 | 34976 ft | 464 kts | 149° |
| 2026-05-07 12:57 | 46.86008 | 11.01450 | 34965 ft | 465 kts | 149° |
| 2026-05-07 12:58 | 46.80741 | 11.06968 | 34954 ft | 469 kts | 145° |
| 2026-05-07 12:58 | 46.75901 | 11.13378 | 34979 ft | 470 kts | 141° |
| 2026-05-07 12:59 | 46.71202 | 11.19954 | 34964 ft | 467 kts | 141° |
| 2026-05-07 12:59 | 46.66536 | 11.26397 | 34953 ft | 466 kts | 141° |
| 2026-05-07 13:00 | 46.61801 | 11.32833 | 34932 ft | 465 kts | 142° |
| 2026-05-07 13:00 | 46.57076 | 11.39209 | 34929 ft | 462 kts | 142° |
| 2026-05-07 13:01 | 46.52356 | 11.45560 | 34936 ft | 462 kts | 142° |
| 2026-05-07 13:01 | 46.47648 | 11.51883 | 34956 ft | 462 kts | 142° |
| 2026-05-07 13:02 | 46.42922 | 11.58213 | 34949 ft | 463 kts | 142° |
| 2026-05-07 13:02 | 46.38187 | 11.64543 | 34967 ft | 463 kts | 142° |
| 2026-05-07 13:03 | 46.33443 | 11.70870 | 34970 ft | 463 kts | 142° |
| 2026-05-07 13:03 | 46.28719 | 11.77155 | 34971 ft | 465 kts | 143° |
| 2026-05-07 13:04 | 46.23943 | 11.83491 | 34985 ft | 467 kts | 142° |
| 2026-05-07 13:04 | 46.19146 | 11.89841 | 34985 ft | 469 kts | 143° |
| 2026-05-07 13:05 | 46.14340 | 11.96188 | 34974 ft | 470 kts | 143° |
| 2026-05-07 13:05 | 46.09509 | 12.02552 | 34979 ft | 470 kts | 143° |
| 2026-05-07 13:06 | 46.04682 | 12.08897 | 34993 ft | 470 kts | 143° |
| 2026-05-07 13:06 | 45.99843 | 12.15240 | 34978 ft | 471 kts | 143° |
| 2026-05-07 13:07 | 45.94998 | 12.21578 | 34966 ft | 470 kts | 143° |
| 2026-05-07 13:07 | 45.90178 | 12.27881 | 34953 ft | 468 kts | 142° |
| 2026-05-07 13:08 | 45.85796 | 12.34763 | 34969 ft | 473 kts | 136° |
| 2026-05-07 13:08 | 45.81563 | 12.41992 | 34968 ft | 473 kts | 136° |
| 2026-05-07 13:09 | 45.77323 | 12.49167 | 34964 ft | 471 kts | 136° |
| 2026-05-07 13:09 | 45.73046 | 12.56282 | 34970 ft | 472 kts | 137° |
| 2026-05-07 13:10 | 45.68747 | 12.63377 | 34966 ft | 471 kts | 137° |
| 2026-05-07 13:10 | 45.64456 | 12.70441 | 34962 ft | 470 kts | 137° |
| 2026-05-07 13:11 | 45.60172 | 12.77481 | 34978 ft | 469 kts | 137° |
| 2026-05-07 13:11 | 45.55844 | 12.84480 | 34964 ft | 472 kts | 137° |
| 2026-05-07 13:12 | 45.51539 | 12.91562 | 34981 ft | 473 kts | 137° |
| 2026-05-07 13:12 | 45.47233 | 12.98632 | 34989 ft | 472 kts | 137° |
| 2026-05-07 13:13 | 45.42913 | 13.05669 | 34992 ft | 472 kts | 137° |
| 2026-05-07 13:13 | 45.38580 | 13.12698 | 34994 ft | 472 kts | 138° |
| 2026-05-07 13:14 | 45.34248 | 13.19712 | 34998 ft | 472 kts | 138° |
| 2026-05-07 13:14 | 45.29920 | 13.26708 | 34989 ft | 473 kts | 138° |
| 2026-05-07 13:15 | 45.25599 | 13.33746 | 35001 ft | 473 kts | 137° |
| 2026-05-07 13:15 | 45.21274 | 13.40786 | 35005 ft | 473 kts | 138° |
| 2026-05-07 13:16 | 45.16973 | 13.47842 | 34983 ft | 474 kts | 136° |
| 2026-05-07 13:16 | 45.12862 | 13.55115 | 34996 ft | 476 kts | 135° |
| 2026-05-07 13:17 | 45.08772 | 13.62477 | 35001 ft | 476 kts | 135° |
| 2026-05-07 13:17 | 45.04651 | 13.69811 | 35002 ft | 477 kts | 135° |
| 2026-05-07 13:18 | 45.00501 | 13.77125 | 35008 ft | 477 kts | 135° |
| 2026-05-07 13:18 | 44.96337 | 13.84428 | 35028 ft | 478 kts | 136° |
| 2026-05-07 13:19 | 44.92164 | 13.91727 | 35013 ft | 477 kts | 136° |
| 2026-05-07 13:19 | 44.87998 | 13.99000 | 35014 ft | 476 kts | 136° |
| 2026-05-07 13:20 | 44.83835 | 14.06250 | 35019 ft | 475 kts | 136° |
| 2026-05-07 13:20 | 44.79700 | 14.13433 | 35017 ft | 475 kts | 136° |
| 2026-05-07 13:21 | 44.75537 | 14.20643 | 35005 ft | 474 kts | 136° |
| 2026-05-07 13:21 | 44.71387 | 14.27815 | 35011 ft | 474 kts | 136° |
| 2026-05-07 13:22 | 44.67223 | 14.34993 | 35020 ft | 474 kts | 136° |
| 2026-05-07 13:22 | 44.63052 | 14.42164 | 35030 ft | 474 kts | 136° |
| 2026-05-07 13:23 | 44.59584 | 14.48112 | 34991 ft | 474 kts | 136° |
| 2026-05-07 13:23 | 44.55403 | 14.55267 | 35015 ft | 474 kts | 136° |
| 2026-05-07 13:24 | 44.50534 | 14.63578 | 35018 ft | 475 kts | 136° |
| 2026-05-07 13:24 | 44.47017 | 14.69566 | 35017 ft | 475 kts | 136° |
| 2026-05-07 13:25 | 44.42814 | 14.76706 | 35027 ft | 476 kts | 136° |
| 2026-05-07 13:25 | 44.38627 | 14.83801 | 35012 ft | 476 kts | 136° |
| 2026-05-07 13:26 | 44.34406 | 14.90936 | 35019 ft | 476 kts | 136° |
| 2026-05-07 13:26 | 44.30177 | 14.98066 | 35024 ft | 477 kts | 136° |
| 2026-05-07 13:27 | 44.25942 | 15.05188 | 35026 ft | 477 kts | 136° |
| 2026-05-07 13:27 | 44.21702 | 15.12304 | 35030 ft | 476 kts | 136° |
| 2026-05-07 13:28 | 44.17498 | 15.19340 | 35047 ft | 475 kts | 136° |
| 2026-05-07 13:28 | 44.13300 | 15.26348 | 35044 ft | 474 kts | 136° |
| 2026-05-07 13:29 | 44.09070 | 15.33393 | 35042 ft | 473 kts | 136° |
| 2026-05-07 13:29 | 44.04851 | 15.40402 | 35047 ft | 472 kts | 136° |
| 2026-05-07 13:30 | 44.00668 | 15.47335 | 35040 ft | 471 kts | 136° |
| 2026-05-07 13:30 | 43.96458 | 15.54296 | 35040 ft | 471 kts | 136° |
| 2026-05-07 13:31 | 43.92215 | 15.61287 | 34460 ft | 477 kts | 136° |
| 2026-05-07 13:31 | 43.90096 | 15.64778 | 34030 ft | 471 kts | 136° |
| 2026-05-07 13:31 | 43.87987 | 15.68250 | 33534 ft | 468 kts | 136° |
| 2026-05-07 13:32 | 43.85935 | 15.71626 | 33100 ft | 464 kts | 136° |
| 2026-05-07 13:32 | 43.83872 | 15.75015 | 32790 ft | 457 kts | 136° |
| 2026-05-07 13:32 | 43.81829 | 15.78366 | 32357 ft | 453 kts | 136° |
| 2026-05-07 13:32 | 43.79807 | 15.81675 | 31947 ft | 448 kts | 136° |
| 2026-05-07 13:33 | 43.77800 | 15.84955 | 31529 ft | 445 kts | 136° |
| 2026-05-07 13:33 | 43.75807 | 15.88207 | 31116 ft | 441 kts | 136° |
| 2026-05-07 13:33 | 43.73831 | 15.91430 | 30707 ft | 438 kts | 136° |
| 2026-05-07 13:33 | 43.71876 | 15.94614 | 30301 ft | 434 kts | 136° |
| 2026-05-07 13:34 | 43.69932 | 15.97777 | 29875 ft | 431 kts | 136° |
| 2026-05-07 13:34 | 43.66088 | 16.04024 | 29003 ft | 422 kts | 136° |
| 2026-05-07 13:34 | 43.64189 | 16.07104 | 28578 ft | 420 kts | 136° |
| 2026-05-07 13:35 | 43.62304 | 16.10158 | 28157 ft | 417 kts | 137° |
| 2026-05-07 13:35 | 43.60429 | 16.13192 | 27742 ft | 413 kts | 137° |
| 2026-05-07 13:35 | 43.58570 | 16.16198 | 27383 ft | 411 kts | 137° |
| 2026-05-07 13:35 | 43.56716 | 16.19192 | 26967 ft | 408 kts | 137° |
| 2026-05-07 13:36 | 43.54876 | 16.22163 | 26568 ft | 406 kts | 137° |
| 2026-05-07 13:36 | 43.53072 | 16.25072 | 26171 ft | 403 kts | 137° |
| 2026-05-07 13:36 | 43.51231 | 16.28037 | 25760 ft | 401 kts | 137° |
| 2026-05-07 13:36 | 43.49467 | 16.30939 | 25362 ft | 400 kts | 134° |
| 2026-05-07 13:37 | 43.47876 | 16.34105 | 24936 ft | 402 kts | 129° |
| 2026-05-07 13:37 | 43.46380 | 16.37352 | 24519 ft | 401 kts | 128° |
| 2026-05-07 13:37 | 43.44916 | 16.40604 | 24126 ft | 398 kts | 128° |
| 2026-05-07 13:37 | 43.43462 | 16.43830 | 23735 ft | 396 kts | 128° |
| 2026-05-07 13:38 | 43.42004 | 16.47035 | 23263 ft | 394 kts | 128° |
| 2026-05-07 13:38 | 43.40547 | 16.50209 | 22820 ft | 391 kts | 128° |
| 2026-05-07 13:38 | 43.39096 | 16.53346 | 22433 ft | 387 kts | 128° |
| 2026-05-07 13:38 | 43.37654 | 16.56450 | 22029 ft | 383 kts | 128° |
| 2026-05-07 13:39 | 43.36223 | 16.59524 | 21640 ft | 380 kts | 128° |
| 2026-05-07 13:39 | 43.34801 | 16.62568 | 21268 ft | 377 kts | 128° |
| 2026-05-07 13:39 | 43.33388 | 16.65591 | 20893 ft | 375 kts | 128° |
| 2026-05-07 13:39 | 43.31979 | 16.68601 | 20518 ft | 373 kts | 128° |
| 2026-05-07 13:40 | 43.30580 | 16.71585 | 20139 ft | 371 kts | 127° |
| 2026-05-07 13:40 | 43.29186 | 16.74558 | 19759 ft | 370 kts | 127° |
| 2026-05-07 13:40 | 43.27797 | 16.77517 | 19393 ft | 368 kts | 127° |
| 2026-05-07 13:40 | 43.26416 | 16.80458 | 19023 ft | 366 kts | 127° |
| 2026-05-07 13:41 | 43.25035 | 16.83394 | 18659 ft | 365 kts | 127° |
| 2026-05-07 13:41 | 43.23661 | 16.86313 | 18257 ft | 364 kts | 127° |
| 2026-05-07 13:41 | 43.22287 | 16.89229 | 17842 ft | 363 kts | 127° |
| 2026-05-07 13:41 | 43.20925 | 16.92120 | 17459 ft | 360 kts | 127° |
| 2026-05-07 13:42 | 43.19568 | 16.94995 | 17078 ft | 358 kts | 127° |
| 2026-05-07 13:42 | 43.18221 | 16.97848 | 16708 ft | 355 kts | 127° |
| 2026-05-07 13:42 | 43.16882 | 17.00681 | 16341 ft | 353 kts | 127° |
| 2026-05-07 13:42 | 43.15552 | 17.03490 | 15981 ft | 350 kts | 126° |
| 2026-05-07 13:43 | 43.14231 | 17.06277 | 15614 ft | 348 kts | 126° |
| 2026-05-07 13:43 | 43.12910 | 17.09039 | 15251 ft | 345 kts | 127° |
| 2026-05-07 13:43 | 43.11576 | 17.11759 | 14907 ft | 343 kts | 127° |
| 2026-05-07 13:43 | 43.10251 | 17.14439 | 14550 ft | 341 kts | 127° |
| 2026-05-07 13:44 | 43.08925 | 17.17119 | 14209 ft | 339 kts | 127° |
| 2026-05-07 13:44 | 43.07606 | 17.19789 | 13858 ft | 338 kts | 127° |
| 2026-05-07 13:44 | 43.06295 | 17.22442 | 13460 ft | 336 kts | 127° |
| 2026-05-07 13:44 | 43.04992 | 17.25081 | 13083 ft | 334 kts | 127° |
| 2026-05-07 13:45 | 43.03697 | 17.27704 | 12722 ft | 332 kts | 127° |
| 2026-05-07 13:45 | 43.02409 | 17.30311 | 12365 ft | 329 kts | 127° |
| 2026-05-07 13:45 | 43.01130 | 17.32894 | 12011 ft | 327 kts | 127° |
| 2026-05-07 13:45 | 42.99878 | 17.35422 | 11678 ft | 325 kts | 127° |
| 2026-05-07 13:46 | 42.98615 | 17.37974 | 11302 ft | 324 kts | 127° |
| 2026-05-07 13:46 | 42.97359 | 17.40516 | 10940 ft | 322 kts | 127° |
| 2026-05-07 13:46 | 42.96111 | 17.43042 | 10599 ft | 320 kts | 127° |
| 2026-05-07 13:46 | 42.94873 | 17.45546 | 10361 ft | 314 kts | 127° |
| 2026-05-07 13:47 | 42.93666 | 17.47987 | 10223 ft | 307 kts | 127° |
| 2026-05-07 13:47 | 42.92486 | 17.50369 | 10015 ft | 301 kts | 127° |
| 2026-05-07 13:47 | 42.91307 | 17.52742 | 9652 ft | 302 kts | 127° |
| 2026-05-07 13:47 | 42.90107 | 17.55058 | 9345 ft | 299 kts | 133° |
| 2026-05-07 13:48 | 42.88700 | 17.57129 | 9024 ft | 296 kts | 138° |
| 2026-05-07 13:48 | 42.87244 | 17.59083 | 8732 ft | 292 kts | 139° |
| 2026-05-07 13:48 | 42.85799 | 17.61015 | 8438 ft | 290 kts | 139° |
| 2026-05-07 13:48 | 42.85556 | 17.61341 | 8390 ft | 290 kts | 138° |
| 2026-05-07 13:49 | 42.84463 | 17.62821 | 8147 ft | 289 kts | 138° |
| 2026-05-07 13:49 | 42.83590 | 17.64015 | 7964 ft | 288 kts | 139° |
| 2026-05-07 13:50 | 42.83314 | 17.64393 | 7913 ft | 288 kts | 139° |
| 2026-05-07 13:50 | 42.82937 | 17.64913 | 7837 ft | 288 kts | 138° |
| 2026-05-07 13:50 | 42.81532 | 17.66854 | 7525 ft | 287 kts | 138° |
| 2026-05-07 13:50 | 42.80135 | 17.68792 | 7238 ft | 286 kts | 138° |
| 2026-05-07 13:51 | 42.78746 | 17.70720 | 6930 ft | 285 kts | 138° |
| 2026-05-07 13:51 | 42.77396 | 17.72679 | 6629 ft | 285 kts | 130° |
| 2026-05-07 13:51 | 42.76374 | 17.74998 | 6340 ft | 286 kts | 120° |
| 2026-05-07 13:51 | 42.75490 | 17.77411 | 6031 ft | 284 kts | 120° |
| 2026-05-07 13:52 | 42.74605 | 17.79804 | 5737 ft | 282 kts | 121° |
| 2026-05-07 13:52 | 42.73706 | 17.82164 | 5455 ft | 281 kts | 122° |
| 2026-05-07 13:52 | 42.72796 | 17.84516 | 5171 ft | 281 kts | 121° |
| 2026-05-07 13:52 | 42.71948 | 17.86860 | 5050 ft | 271 kts | 121° |
| 2026-05-07 13:53 | 42.71109 | 17.89105 | 4919 ft | 262 kts | 122° |
| 2026-05-07 13:53 | 42.70270 | 17.91245 | 4808 ft | 251 kts | 123° |
| 2026-05-07 13:53 | 42.69458 | 17.93284 | 4698 ft | 241 kts | 123° |
| 2026-05-07 13:53 | 42.68671 | 17.95255 | 4621 ft | 233 kts | 123° |
| 2026-05-07 13:54 | 42.67907 | 17.97171 | 4527 ft | 228 kts | 123° |
| 2026-05-07 13:54 | 42.67155 | 17.99055 | 4318 ft | 226 kts | 122° |
| 2026-05-07 13:54 | 42.66411 | 18.00920 | 4098 ft | 224 kts | 122° |
| 2026-05-07 13:54 | 42.65671 | 18.02781 | 3866 ft | 224 kts | 122° |
| 2026-05-07 13:55 | 42.64937 | 18.04631 | 3656 ft | 219 kts | 122° |
| 2026-05-07 13:55 | 42.64239 | 18.06390 | 3547 ft | 206 kts | 122° |
| 2026-05-07 13:55 | 42.63569 | 18.08071 | 3299 ft | 198 kts | 122° |
| 2026-05-07 13:55 | 42.62926 | 18.09692 | 3033 ft | 192 kts | 121° |
| 2026-05-07 13:56 | 42.62301 | 18.11268 | 2780 ft | 187 kts | 121° |
| 2026-05-07 13:56 | 42.61691 | 18.12804 | 2536 ft | 182 kts | 121° |
| 2026-05-07 13:56 | 42.61104 | 18.14281 | 2288 ft | 177 kts | 120° |
| 2026-05-07 13:56 | 42.60540 | 18.15705 | 2077 ft | 163 kts | 120° |
| 2026-05-07 13:57 | 42.60026 | 18.17002 | 1876 ft | 148 kts | 121° |
| 2026-05-07 13:57 | 42.59563 | 18.18173 | 1693 ft | 136 kts | 122° |
| 2026-05-07 13:57 | 42.59112 | 18.19308 | 1483 ft | 135 kts | 121° |
| 2026-05-07 13:57 | 42.58663 | 18.20438 | 1290 ft | 137 kts | 120° |
| 2026-05-07 13:58 | 42.58203 | 18.21586 | 1130 ft | 141 kts | 120° |
| 2026-05-07 13:58 | 42.57746 | 18.22761 | 993 ft | 139 kts | 119° |
| 2026-05-07 13:58 | 42.57298 | 18.23886 | 756 ft | 133 kts | 117° |
| 2026-05-07 13:58 | 42.56864 | 18.24989 | 558 ft | 127 kts | 122° |
| 2026-05-07 13:59 | 42.56497 | 18.25920 | 535 ft | 91 kts | 118° |
| 2026-05-07 13:59 | 42.56288 | 18.26443 | 531 ft | 36 kts | 118° |
| 2026-05-07 13:59 | 42.56215 | 18.26618 | 533 ft | 16 kts | 135° |
| 2026-05-07 13:59 | 42.56142 | 18.26585 | 533 ft | 8 kts | 240° |
| 2026-05-07 14:00 | 42.56120 | 18.26527 | 533 ft | 7 kts | 243° |
| 2026-05-07 14:00 | 42.56101 | 18.26471 | 533 ft | 6 kts | 257° |
| 2026-05-07 14:00 | 42.56110 | 18.26422 | 533 ft | 5 kts | 292° |
| 2026-05-07 14:00 | 42.56124 | 18.26384 | 533 ft | 4 kts | 297° |
| 2026-05-07 14:01 | 42.56138 | 18.26347 | 533 ft | 4 kts | 297° |
| 2026-05-07 14:01 | 42.56154 | 18.26308 | 533 ft | 6 kts | 298° |
| 2026-05-07 14:01 | 42.56150 | 18.26279 | 533 ft | 2 kts | 221° |
| 2026-05-07 14:01 | 42.56139 | 18.26271 | 533 ft | 2 kts | 208° |
| 2026-05-07 14:02 | 42.56120 | 18.26256 | 533 ft | 3 kts | 208° |
| 2026-05-07 14:02 | 42.56113 | 18.26251 | 533 ft | 0 kts | 208° |